Time;durP1;ratioP1;P1;durP2;ratioP2;P2;SDS_P1;SDS_P2;PMS_P1;PMS_P2;Temp;Humidity;BMP_temperature;BMP_pressure;BME280_temperature;BME280_humidity;BME280_pressure;Samples;Min_cycle;Max_cycle;Signal;HPM_P1;HPM_P2
2022/12/21 00:00:20;;;;;;;;;10.33;10.33;;;;;13.84;78.24;100585.31;2105268;28;46929;-62
2022/12/21 00:01:30;;;;;;;;;10.33;10.33;;;;;13.84;78.02;100585.31;2105291;28;46192;-62
2022/12/21 00:02:33;;;;;;;;;9.25;9.25;;;;;13.84;78.16;100600.44;2107065;27;45715;-63
2022/12/21 00:03:33;;;;;;;;;9.50;9.50;;;;;13.84;78.38;100589.78;2106389;27;46941;-63
2022/12/21 00:04:34;;;;;;;;;11.33;11.00;;;;;13.84;78.24;100587.09;2105883;27;46548;-63
2022/12/21 00:05:34;;;;;;;;;7.00;7.00;;;;;13.84;78.37;100595.13;2106064;27;45620;-62
2022/12/21 00:06:37;;;;;;;;;9.67;9.67;;;;;13.86;78.18;100589.75;2095836;28;46820;-63
2022/12/21 00:07:37;;;;;;;;;10.25;9.75;;;;;13.85;78.15;100586.22;2096835;28;46573;-63
2022/12/21 00:08:41;;;;;;;;;12.33;11.33;;;;;13.86;78.03;100595.94;2111355;27;46136;-62
2022/12/21 00:09:41;;;;;;;;;9.75;9.50;;;;;13.86;78.01;100590.63;2112858;27;46456;-64
2022/12/21 00:10:41;;;;;;;;;10.00;9.00;;;;;13.87;77.91;100602.16;2108662;27;45839;-61
2022/12/21 00:11:42;;;;;;;;;11.00;11.00;;;;;13.87;77.87;100596.81;2113534;27;46429;-63
2022/12/21 00:12:42;;;;;;;;;10.00;9.00;;;;;13.88;78.10;100593.22;2112059;27;46534;-62
2022/12/21 00:13:43;;;;;;;;;8.67;8.67;;;;;13.89;77.96;100600.28;2110033;27;46404;-63
2022/12/21 00:14:44;;;;;;;;;9.00;9.00;;;;;13.88;77.95;100590.56;2105994;27;46637;-62
2022/12/21 00:15:44;;;;;;;;;8.50;7.75;;;;;13.89;78.05;100594.97;2105488;27;46410;-62
2022/12/21 00:16:45;;;;;;;;;5.33;5.33;;;;;13.88;77.85;100595.88;2105874;27;46957;-62
2022/12/21 00:17:45;;;;;;;;;8.67;8.67;;;;;13.87;77.92;100583.47;2105919;27;46873;-63
2022/12/21 00:18:46;;;;;;;;;10.67;10.00;;;;;13.86;78.13;100590.63;2105692;27;46984;-62
2022/12/21 00:19:46;;;;;;;;;10.50;9.25;;;;;13.87;78.21;100595.03;2105596;27;46593;-63
2022/12/21 00:21:03;;;;;;;;;8.00;8.00;;;;;13.87;78.18;100596.81;2105618;27;46681;-62
2022/12/21 00:22:04;;;;;;;;;9.50;9.50;;;;;13.88;78.34;100601.22;2105358;27;46705;-62
2022/12/21 00:23:04;;;;;;;;;11.00;10.67;;;;;13.88;77.96;100602.09;2107132;27;46376;-62
2022/12/21 00:24:05;;;;;;;;;13.00;12.00;;;;;13.89;78.11;100598.50;2107687;27;46858;-61
2022/12/21 00:25:05;;;;;;;;;8.33;8.33;;;;;13.87;77.77;100600.34;2105024;28;46983;-62
2022/12/21 00:26:10;;;;;;;;;9.33;9.33;;;;;13.88;78.08;100615.44;2114298;27;46487;-62
2022/12/21 00:27:10;;;;;;;;;8.75;8.75;;;;;13.88;77.91;100606.56;2104811;28;46611;-63
2022/12/21 00:28:11;;;;;;;;;9.00;9.00;;;;;13.87;78.06;100605.69;2105688;27;46230;-62
2022/12/21 00:29:11;;;;;;;;;10.00;10.00;;;;;13.88;77.82;100604.75;2105648;27;46383;-62
2022/12/21 00:30:11;;;;;;;;;9.33;9.33;;;;;13.88;78.02;100593.22;2105541;27;47104;-62
2022/12/21 00:31:15;;;;;;;;;9.00;8.67;;;;;13.89;78.03;100594.97;2104775;28;46492;-63
2022/12/21 00:32:15;;;;;;;;;11.25;9.50;;;;;13.88;77.70;100588.75;2105581;28;45486;-64
2022/12/21 00:33:16;;;;;;;;;12.00;12.00;;;;;13.89;78.09;100592.28;2100419;28;46266;-62
2022/12/21 00:34:17;;;;;;;;;10.33;9.33;;;;;13.89;78.06;100589.63;2096886;28;46237;-61
2022/12/21 00:35:18;;;;;;;;;9.75;9.75;;;;;13.88;77.82;100586.09;2105717;27;46595;-63
2022/12/21 00:36:20;;;;;;;;;9.67;8.00;;;;;13.89;77.74;100584.28;2105235;27;46344;-63
2022/12/21 00:37:20;;;;;;;;;11.50;9.50;;;;;13.89;77.97;100586.97;2105483;27;47179;-63
2022/12/21 00:38:21;;;;;;;;;12.00;12.00;;;;;13.88;77.60;100583.44;2106219;27;46529;-62
2022/12/21 00:39:21;;;;;;;;;11.00;9.00;;;;;13.87;77.73;100587.03;2107485;27;45991;-63
2022/12/21 00:40:21;;;;;;;;;10.67;10.00;;;;;13.87;77.92;100583.47;2107501;27;46372;-63
2022/12/21 00:41:24;;;;;;;;;7.33;7.00;;;;;13.86;77.79;100579.06;2104982;27;46565;-64
2022/12/21 00:42:24;;;;;;;;;9.50;8.00;;;;;13.86;78.03;100579.94;2105698;27;46346;-62
2022/12/21 00:43:25;;;;;;;;;9.00;9.00;;;;;13.86;78.16;100584.41;2105560;27;46432;-61
2022/12/21 00:44:26;;;;;;;;;8.75;8.75;;;;;13.86;78.30;100584.41;2109776;27;46576;-62
2022/12/21 00:45:26;;;;;;;;;9.00;9.00;;;;;13.86;77.96;100587.09;2105768;27;46694;-62
2022/12/21 00:46:30;;;;;;;;;10.67;10.00;;;;;13.86;78.16;100584.41;2098930;28;45808;-61
2022/12/21 00:47:30;;;;;;;;;10.75;10.00;;;;;13.84;77.65;100576.44;2102033;28;46905;-62
2022/12/21 00:48:32;;;;;;;;;11.33;9.00;;;;;13.85;77.80;100583.53;2105648;27;46207;-63
2022/12/21 00:49:32;;;;;;;;;8.50;8.50;;;;;13.85;78.15;100594.22;2107156;27;46866;-63
2022/12/21 00:50:33;;;;;;;;;9.67;8.67;;;;;13.85;77.93;100591.53;2111712;27;45837;-62
2022/12/21 00:51:35;;;;;;;;;10.33;10.33;;;;;13.86;77.96;100593.28;2105557;28;46340;-63
2022/12/21 00:52:35;;;;;;;;;10.75;10.75;;;;;13.88;77.87;100593.22;2105472;27;46843;-62
2022/12/21 00:53:36;;;;;;;;;10.00;9.00;;;;;13.88;78.01;100595.88;2105858;27;45053;-62
2022/12/21 00:54:36;;;;;;;;;11.50;10.00;;;;;13.88;77.74;100594.09;2109129;27;46920;-61
2022/12/21 00:55:37;;;;;;;;;8.33;8.33;;;;;13.87;77.56;100584.34;2109669;27;46316;-62
2022/12/21 00:56:37;;;;;;;;;12.00;11.67;;;;;13.87;77.78;100595.03;2104245;28;46459;-62
2022/12/21 00:57:38;;;;;;;;;10.00;8.33;;;;;13.84;78.07;100601.31;2110501;27;46104;-61
2022/12/21 00:58:39;;;;;;;;;9.00;9.00;;;;;13.86;78.09;100601.28;2114135;27;46607;-62
2022/12/21 00:59:39;;;;;;;;;10.50;10.00;;;;;13.86;78.32;100601.28;2097395;28;45780;-62
2022/12/21 01:00:39;;;;;;;;;10.33;10.33;;;;;13.87;78.27;100602.16;2108308;27;46455;-62
2022/12/21 01:01:40;;;;;;;;;8.67;8.67;;;;;13.88;78.34;100606.56;2113623;27;46994;-61
2022/12/21 01:02:40;;;;;;;;;10.67;10.67;;;;;13.88;78.15;100603.91;2106573;27;46510;-62
2022/12/21 01:03:41;;;;;;;;;9.00;9.00;;;;;13.88;78.40;100601.22;2105411;27;46212;-62
2022/12/21 01:04:41;;;;;;;;;9.67;8.00;;;;;13.89;78.13;100605.63;2113124;27;46668;-63
2022/12/21 01:05:46;;;;;;;;;9.33;9.33;;;;;13.90;78.48;100602.91;2105414;27;46291;-62
2022/12/21 01:06:46;;;;;;;;;8.00;8.00;;;;;13.90;78.18;100608.25;2105370;27;46499;-61
2022/12/21 01:07:47;;;;;;;;;9.33;8.00;;;;;13.90;78.42;100602.91;2095799;28;46654;-62
2022/12/21 01:08:48;;;;;;;;;9.00;9.00;;;;;13.92;78.08;100602.84;2095448;28;46550;-62
2022/12/21 01:09:48;;;;;;;;;5.33;5.33;;;;;13.91;77.95;100604.63;2105516;27;46098;-63
2022/12/21 01:10:49;;;;;;;;;10.00;10.00;;;;;13.92;78.42;100602.84;2105823;27;45980;-62
2022/12/21 01:11:49;;;;;;;;;8.00;7.00;;;;;13.93;78.23;100599.25;2105575;27;45942;-62
2022/12/21 01:12:49;;;;;;;;;12.00;10.00;;;;;13.93;78.43;100600.13;2105393;27;46553;-62
2022/12/21 01:13:51;;;;;;;;;10.67;10.00;;;;;13.93;78.12;100610.78;2105200;27;45672;-62
2022/12/21 01:14:51;;;;;;;;;8.50;8.50;;;;;13.93;78.30;100602.78;2105202;28;46998;-62
2022/12/21 01:15:52;;;;;;;;;8.00;8.00;;;;;13.93;78.29;100615.25;2111622;27;46946;-62
2022/12/21 01:16:52;;;;;;;;;9.00;7.33;;;;;13.92;78.39;100606.38;2112280;27;46565;-61
2022/12/21 01:17:53;;;;;;;;;11.00;11.00;;;;;13.92;78.40;100610.84;2105067;27;46281;-61
2022/12/21 01:18:53;;;;;;;;;9.00;9.00;;;;;13.92;78.40;100608.19;2110027;27;46347;-62
2022/12/21 01:19:54;;;;;;;;;9.33;9.33;;;;;13.91;78.78;100609.97;2114115;27;45142;-63
2022/12/21 01:20:54;;;;;;;;;9.67;9.00;;;;;13.91;78.22;100607.31;2105478;27;46248;-62
2022/12/21 01:21:55;;;;;;;;;8.00;8.00;;;;;13.91;78.24;100604.63;2105077;27;48312;-62
2022/12/21 01:22:55;;;;;;;;;9.00;9.00;;;;;13.91;78.07;100612.66;2105179;27;47149;-62
2022/12/21 01:23:56;;;;;;;;;8.00;8.00;;;;;13.91;78.11;100603.78;2109266;27;46338;-62
2022/12/21 01:24:56;;;;;;;;;9.67;9.67;;;;;13.90;78.29;100602.91;2113353;27;46113;-61
2022/12/21 01:25:56;;;;;;;;;11.00;9.67;;;;;13.90;78.44;100605.56;2112842;27;46194;-62
2022/12/21 01:26:56;;;;;;;;;10.00;8.33;;;;;13.90;78.46;100616.25;2109604;27;46274;-62
2022/12/21 01:27:57;;;;;;;;;10.00;9.00;;;;;13.90;78.39;100610.91;2105211;27;46188;-63
2022/12/21 01:28:57;;;;;;;;;8.00;8.00;;;;;13.90;78.62;100610.03;2104729;28;46253;-62
2022/12/21 01:29:58;;;;;;;;;9.33;8.00;;;;;13.89;78.67;100618.97;2104974;27;46319;-60
2022/12/21 01:31:02;;;;;;;;;9.67;9.00;;;;;13.90;78.36;100618.03;2113592;27;46775;-60
2022/12/21 01:32:02;;;;;;;;;9.00;8.75;;;;;13.89;78.37;100621.63;2107312;27;46374;-61
2022/12/21 01:33:02;;;;;;;;;9.00;9.00;;;;;13.87;78.61;100619.03;2105281;27;45228;-62
2022/12/21 01:34:03;;;;;;;;;8.67;8.00;;;;;13.87;78.12;100621.69;2104457;28;46263;-61
2022/12/21 01:35:03;;;;;;;;;12.33;10.33;;;;;13.87;78.41;100627.03;2106353;27;46585;-62
2022/12/21 01:36:09;;;;;;;;;9.00;8.00;;;;;13.87;78.53;100623.50;2105037;27;46427;-63
2022/12/21 01:37:10;;;;;;;;;4.75;3.00;;;;;13.86;78.72;100625.28;2104969;27;46629;-61
2022/12/21 01:38:12;;;;;;;;;10.00;10.00;;;;;13.86;79.01;100619.97;2106318;27;45179;-62
2022/12/21 01:39:13;;;;;;;;;8.75;8.75;;;;;13.87;78.63;100621.69;2104585;28;46580;-62
2022/12/21 01:40:13;;;;;;;;;5.33;5.33;;;;;13.89;78.42;100618.97;2104642;27;46219;-62
2022/12/21 01:41:17;;;;;;;;;8.00;8.00;;;;;13.89;78.57;100616.31;2106023;27;46880;-62
2022/12/21 01:42:17;;;;;;;;;7.50;7.25;;;;;13.89;78.49;100611.84;2105409;27;46862;-61
2022/12/21 01:43:57;;;;;;;;;6.67;6.67;;;;;13.91;78.71;100614.44;2105259;27;46283;-62
2022/12/21 01:45:03;;;;;;;;;8.00;7.00;;;;;13.92;78.84;100617.06;2109369;27;46732;-62
2022/12/21 01:46:21;;;;;;;;;8.75;8.00;;;;;13.93;78.68;100616.13;2113005;27;46794;-62
2022/12/21 01:47:37;;;;;;;;;5.00;5.00;;;;;13.94;78.56;100615.19;2096627;28;46625;-62
2022/12/21 01:48:43;;;;;;;;;7.25;6.75;;;;;13.97;78.12;100619.53;2105026;27;45997;-62
2022/12/21 01:49:51;;;;;;;;;7.50;7.50;;;;;13.97;78.61;100628.41;2108574;27;46130;-61
2022/12/21 01:51:00;;;;;;;;;5.25;5.25;;;;;13.97;78.15;100631.06;2109511;27;46609;-63
2022/12/21 01:52:09;;;;;;;;;7.25;7.25;;;;;13.98;78.52;100634.66;2104988;27;46371;-62
2022/12/21 01:53:24;;;;;;;;;6.50;6.25;;;;;13.99;78.62;100637.25;2110008;27;46335;-63
2022/12/21 01:54:30;;;;;;;;;7.75;7.75;;;;;13.99;77.89;100634.59;2111524;27;46763;-63
2022/12/21 01:55:31;;;;;;;;;8.50;7.25;;;;;13.99;78.07;100639.06;2113361;27;46357;-61
2022/12/21 01:56:35;;;;;;;;;8.50;8.50;;;;;13.98;78.20;100639.97;2103437;27;47085;-62
2022/12/21 01:57:36;;;;;;;;;9.50;8.00;;;;;13.98;78.43;100640.84;2104836;27;47038;-63
2022/12/21 01:58:40;;;;;;;;;6.67;6.67;;;;;13.97;78.11;100639.06;2105780;27;46733;-63
2022/12/21 01:59:48;;;;;;;;;10.25;9.25;;;;;13.96;78.42;100637.34;2105172;28;46784;-62
2022/12/21 02:00:48;;;;;;;;;10.25;9.00;;;;;13.95;78.46;100638.28;2107479;27;47034;-62
2022/12/21 02:01:49;;;;;;;;;8.00;8.00;;;;;13.94;78.29;100628.53;2105051;27;46268;-62
2022/12/21 02:02:56;;;;;;;;;6.33;5.00;;;;;13.95;78.04;100637.41;2104140;27;46263;-63
2022/12/21 02:03:57;;;;;;;;;9.25;8.25;;;;;13.95;78.13;100632.06;2102644;27;46579;-62
2022/12/21 02:05:11;;;;;;;;;7.00;7.00;;;;;13.95;78.07;100634.72;2113746;27;46526;-62
2022/12/21 02:06:22;;;;;;;;;7.50;7.50;;;;;13.94;78.21;100633.88;2103098;28;46560;-61
2022/12/21 02:07:23;;;;;;;;;6.00;5.75;;;;;13.93;78.26;100642.81;2105245;27;46908;-62
2022/12/21 02:08:23;;;;;;;;;9.00;9.00;;;;;13.92;78.39;100643.72;2105485;27;46707;-62
2022/12/21 02:09:28;;;;;;;;;8.00;7.00;;;;;13.92;78.04;100645.53;2103087;28;46735;-61
2022/12/21 02:10:29;;;;;;;;;8.00;8.00;;;;;13.91;77.90;100647.31;2107138;27;46479;-62
2022/12/21 02:11:29;;;;;;;;;5.00;4.67;;;;;13.89;78.18;100641.19;2104806;27;46842;-61
2022/12/21 02:12:31;;;;;;;;;7.33;7.33;;;;;13.88;78.05;100652.78;2106480;27;47574;-62
2022/12/21 02:13:31;;;;;;;;;7.25;6.00;;;;;13.87;78.06;100655.50;2104182;27;46908;-61
2022/12/21 02:14:37;;;;;;;;;7.67;7.00;;;;;13.86;77.91;100659.09;2112933;27;46741;-62
2022/12/21 02:15:50;;;;;;;;;8.75;7.50;;;;;13.85;78.06;100660.91;2111725;27;46671;-63
2022/12/21 02:17:02;;;;;;;;;7.00;7.00;;;;;13.84;77.73;100657.34;2111004;27;46689;-62
2022/12/21 02:18:20;;;;;;;;;4.75;4.25;;;;;13.82;77.51;100659.19;2113311;27;46270;-62
2022/12/21 02:19:56;;;;;;;;;6.75;5.75;;;;;13.81;77.79;100652.13;2096453;28;46520;-62
2022/12/21 02:20:59;;;;;;;;;6.25;6.25;;;;;13.81;77.52;100656.59;2105146;27;46160;-61
2022/12/21 02:22:44;;;;;;;;;4.50;4.50;;;;;13.81;77.02;100659.25;2104861;27;46225;-62
2022/12/21 02:24:06;;;;;;;;;5.75;5.25;;;;;13.80;76.87;100669.03;2078782;28;46470;-62
2022/12/21 02:25:36;;;;;;;;;4.25;4.25;;;;;13.78;76.55;100664.69;2079275;28;46781;-62
2022/12/21 02:27:00;;;;;;;;;4.75;3.25;;;;;13.75;76.59;100663.03;2079048;28;46758;-60
2022/12/21 02:28:30;;;;;;;;;4.00;4.00;;;;;13.75;76.50;100656.81;2072554;28;46987;-61
2022/12/21 02:29:55;;;;;;;;;3.00;3.00;;;;;13.72;76.34;100651.56;2079128;28;46615;-62
2022/12/21 02:31:08;;;;;;;;;4.00;3.00;;;;;13.69;76.08;100654.34;2070846;28;46581;-61
2022/12/21 02:32:36;;;;;;;;;3.00;2.00;;;;;13.65;76.15;100645.59;2075248;28;46525;-63
2022/12/21 02:33:57;;;;;;;;;3.00;3.00;;;;;13.61;75.79;100645.78;2078828;28;47162;-61
2022/12/21 02:35:22;;;;;;;;;3.00;3.00;;;;;13.59;75.68;100655.59;2078957;28;46374;-61
2022/12/21 02:36:32;;;;;;;;;2.75;2.75;;;;;13.56;75.75;100653.91;2078657;28;46446;-62
2022/12/21 02:37:36;;;;;;;;;3.25;3.25;;;;;13.54;75.53;100653.09;2062542;28;47009;-61
2022/12/21 02:38:47;;;;;;;;;4.25;4.25;;;;;13.52;75.63;100652.28;2069172;28;46439;-62
2022/12/21 02:40:05;;;;;;;;;3.25;3.25;;;;;13.51;75.59;100653.22;2078869;28;46460;-61
2022/12/21 02:41:12;;;;;;;;;2.25;2.25;;;;;13.48;75.54;100651.53;2078627;28;46998;-61
2022/12/21 02:44:24;;;;;;;;;2.50;2.50;;;;;13.45;75.10;100648.06;2046572;28;47023;-62
2022/12/21 02:45:44;;;;;;;;;0.75;0.75;;;;;13.42;75.38;100657.06;2053650;28;46566;-62
2022/12/21 02:46:50;;;;;;;;;1.75;1.75;;;;;13.41;75.38;100654.44;2054189;28;46502;-63
2022/12/21 02:48:29;;;;;;;;;3.25;3.25;;;;;13.39;75.22;100657.16;2054078;28;46771;-62
2022/12/21 02:49:35;;;;;;;;;1.00;0.75;;;;;13.38;75.31;100651.91;2054211;28;46762;-62
2022/12/21 02:50:41;;;;;;;;;1.50;1.25;;;;;13.34;75.14;100656.47;2046363;28;46895;-62
2022/12/21 02:51:51;;;;;;;;;1.75;1.75;;;;;13.32;75.14;100658.28;2046957;28;46595;-62
2022/12/21 02:52:57;;;;;;;;;2.75;2.75;;;;;13.32;75.15;100660.09;2054278;28;46921;-62
2022/12/21 02:53:58;;;;;;;;;2.00;2.00;;;;;13.29;75.23;100662.84;2054354;28;46477;-62
2022/12/21 02:55:00;;;;;;;;;2.67;2.67;;;;;13.29;75.05;100655.72;2054092;28;46637;-62
2022/12/21 02:56:00;;;;;;;;;2.50;2.50;;;;;13.28;75.46;100656.66;2054544;28;45632;-63
2022/12/21 02:57:01;;;;;;;;;3.00;3.00;;;;;13.27;75.13;100657.59;2054390;28;46729;-62
2022/12/21 02:58:19;;;;;;;;;4.00;2.33;;;;;13.27;75.16;100659.38;2054026;28;46412;-62
2022/12/21 02:59:28;;;;;;;;;2.00;2.00;;;;;13.25;75.02;100654.97;2054222;28;46416;-63
2022/12/21 03:00:28;;;;;;;;;3.25;3.25;;;;;13.24;75.12;100655.91;2054027;28;46715;-61
2022/12/21 03:01:59;;;;;;;;;3.00;3.00;;;;;13.22;74.86;100657.75;2077396;28;46651;-61
2022/12/21 03:03:47;;;;;;;;;3.00;3.00;;;;;13.19;74.88;100663.16;2074223;28;46650;-62
2022/12/21 03:05:02;;;;;;;;;3.00;2.50;;;;;13.16;74.97;100662.38;2080013;28;46439;-62
2022/12/21 03:06:28;;;;;;;;;2.75;2.75;;;;;13.14;74.87;100664.22;2080187;28;46457;-61
2022/12/21 03:07:47;;;;;;;;;2.00;2.00;;;;;13.12;74.97;100668.72;2079953;28;46441;-62
2022/12/21 03:09:05;;;;;;;;;3.00;3.00;;;;;13.09;74.68;100655.50;2080083;28;46947;-62
2022/12/21 03:10:23;;;;;;;;;2.25;2.25;;;;;13.06;74.83;100668.91;2080345;28;46847;-62
2022/12/21 03:11:37;;;;;;;;;2.00;2.00;;;;;13.04;74.99;100676.97;2080315;28;45356;-62
2022/12/21 03:12:57;;;;;;;;;3.00;3.00;;;;;13.03;75.07;100677.00;2080017;28;45297;-62
2022/12/21 03:14:24;;;;;;;;;1.00;1.00;;;;;13.03;74.78;100677.00;2080182;28;46757;-62
2022/12/21 03:15:39;;;;;;;;;1.75;1.75;;;;;13.00;74.82;100677.13;2051174;28;47012;-61
2022/12/21 03:16:44;;;;;;;;;1.00;1.00;;;;;12.98;74.94;100679.84;2047749;28;46454;-62
2022/12/21 03:17:56;;;;;;;;;3.00;2.00;;;;;12.97;75.00;100680.75;2039555;28;46492;-61
2022/12/21 03:19:02;;;;;;;;;1.00;1.00;;;;;12.96;74.78;100681.69;2074484;28;46601;-61
2022/12/21 03:20:19;;;;;;;;;2.00;2.00;;;;;12.95;74.80;100687.91;2080025;28;46725;-62
2022/12/21 03:21:23;;;;;;;;;3.75;2.75;;;;;12.94;74.96;100683.50;2072036;28;46605;-61
2022/12/21 03:22:44;;;;;;;;;1.25;1.00;;;;;12.93;74.92;100682.63;2076067;28;46838;-60
2022/12/21 03:23:56;;;;;;;;;2.25;2.25;;;;;12.92;74.93;100678.22;2063638;28;46420;-61
2022/12/21 03:25:03;;;;;;;;;1.75;1.75;;;;;12.91;75.04;100681.81;2066816;28;45585;-63
2022/12/21 03:26:13;;;;;;;;;2.00;2.00;;;;;12.91;74.54;100684.47;2071686;28;46937;-61
2022/12/21 03:27:18;;;;;;;;;1.50;1.00;;;;;12.87;74.61;100677.50;2059805;28;46890;-62
2022/12/21 03:28:24;;;;;;;;;1.25;1.00;;;;;12.85;74.41;100676.69;2063395;28;46728;-61
2022/12/21 03:29:33;;;;;;;;;0.00;0.00;;;;;12.83;74.17;100677.63;2071920;28;46633;-61
2022/12/21 03:30:42;;;;;;;;;1.00;1.00;;;;;12.80;74.43;100680.41;2061053;28;46913;-63
2022/12/21 03:31:52;;;;;;;;;1.00;1.00;;;;;12.76;74.24;100679.63;2067485;28;46091;-62
2022/12/21 03:33:04;;;;;;;;;0.50;0.50;;;;;12.74;74.19;100677.94;2064789;28;46868;-61
2022/12/21 03:34:15;;;;;;;;;0.50;0.50;;;;;12.73;74.20;100673.53;2064124;28;46910;-61
2022/12/21 03:35:26;;;;;;;;;1.25;1.25;;;;;12.72;74.16;100675.34;2070885;28;45656;-62
2022/12/21 03:36:37;;;;;;;;;2.00;1.00;;;;;12.71;74.24;100678.91;2063010;28;46969;-61
2022/12/21 03:37:40;;;;;;;;;1.00;1.00;;;;;12.70;74.14;100671.81;2057006;28;46804;-62
2022/12/21 03:38:45;;;;;;;;;1.00;1.00;;;;;12.70;73.99;100681.59;2067221;28;46287;-62
2022/12/21 03:39:56;;;;;;;;;2.50;1.00;;;;;12.68;74.14;100684.31;2068772;28;47131;-62
2022/12/21 03:41:01;;;;;;;;;1.00;1.00;;;;;12.67;74.02;100690.56;2071845;28;46984;-61
2022/12/21 03:42:21;;;;;;;;;1.00;1.00;;;;;12.68;74.15;100687.84;2064678;28;47711;-62
2022/12/21 03:43:30;;;;;;;;;1.00;1.00;;;;;12.69;74.21;100688.72;2063329;28;46761;-61
2022/12/21 03:44:39;;;;;;;;;2.00;2.00;;;;;12.70;74.09;100687.78;2066314;28;46732;-61
2022/12/21 03:45:46;;;;;;;;;1.00;1.00;;;;;12.70;74.14;100687.78;2064157;28;45862;-62
2022/12/21 03:46:54;;;;;;;;;1.00;1.00;;;;;12.71;73.87;100688.69;2061707;28;46382;-62
2022/12/21 03:48:19;;;;;;;;;1.00;1.00;;;;;12.72;73.88;100687.78;2061177;28;45651;-60
2022/12/21 03:49:33;;;;;;;;;1.75;0.25;;;;;12.71;73.86;100694.03;2058038;28;46915;-62
2022/12/21 03:50:40;;;;;;;;;0.00;0.00;;;;;12.70;73.88;100682.47;2064755;28;45216;-62
2022/12/21 03:51:47;;;;;;;;;0.25;0.25;;;;;12.71;73.93;100688.69;2061829;28;46918;-61
2022/12/21 03:53:19;;;;;;;;;0.00;0.00;;;;;12.67;74.08;100683.44;2067526;28;47988;-60
2022/12/21 03:55:06;;;;;;;;;1.00;1.00;;;;;12.68;73.84;100689.63;2089668;28;46899;-62
2022/12/21 03:56:12;;;;;;;;;1.00;1.00;;;;;12.68;74.19;100684.31;2057518;28;46713;-61
2022/12/21 03:57:13;;;;;;;;;0.00;0.00;;;;;12.69;73.89;100686.06;2056833;28;46643;-62
2022/12/21 03:58:15;;;;;;;;;0.00;0.00;;;;;12.68;73.75;100684.31;2056071;28;46754;-62
2022/12/21 03:59:17;;;;;;;;;1.00;0.00;;;;;12.68;73.73;100692.31;2055351;28;46857;-62
2022/12/21 04:00:17;;;;;;;;;0.00;0.00;;;;;12.68;73.69;100690.50;2055474;28;46944;-62
2022/12/21 04:01:24;;;;;;;;;0.00;0.00;;;;;12.70;73.71;100700.22;2059132;28;46285;-62
2022/12/21 04:02:39;;;;;;;;;0.50;0.50;;;;;12.70;73.78;100693.13;2074009;28;46799;-61
2022/12/21 04:03:43;;;;;;;;;0.75;0.75;;;;;12.72;73.94;100693.97;2065430;28;46886;-61
2022/12/21 04:04:57;;;;;;;;;0.00;0.00;;;;;12.72;73.68;100683.31;2071500;28;46685;-61
2022/12/21 04:06:23;;;;;;;;;0.50;0.50;;;;;12.73;73.73;100686.84;2072476;28;46974;-60
2022/12/21 04:07:25;;;;;;;;;0.50;0.50;;;;;12.73;73.71;100687.72;2072636;28;46737;-62
2022/12/21 04:08:27;;;;;;;;;1.00;1.00;;;;;12.72;73.81;100678.00;2071773;28;47231;-62
2022/12/21 04:09:27;;;;;;;;;0.00;0.00;;;;;12.74;73.72;100691.25;2072843;28;46759;-61
2022/12/21 04:10:28;;;;;;;;;1.00;1.00;;;;;12.74;73.65;100689.47;2064135;28;46372;-62
2022/12/21 04:12:54;;;;;;;;;0.75;0.75;;;;;12.74;73.64;100688.59;2071658;28;46400;-62
2022/12/21 04:13:54;;;;;;;;;0.00;0.00;;;;;12.74;73.71;100693.91;2076451;28;46640;-62
2022/12/21 04:14:55;;;;;;;;;0.00;0.00;;;;;12.73;73.46;100690.38;2079785;28;46563;-61
2022/12/21 04:16:04;;;;;;;;;0.00;0.00;;;;;12.73;73.49;100694.84;2070579;28;46682;-62
2022/12/21 04:17:05;;;;;;;;;0.00;0.00;;;;;12.73;73.39;100689.50;2072619;28;46619;-62
2022/12/21 04:18:05;;;;;;;;;0.00;0.00;;;;;12.74;73.49;100696.59;2071561;28;46710;-62
2022/12/21 04:20:24;;;;;;;;;1.00;1.00;;;;;12.77;73.53;100691.16;2072526;28;46025;-61
2022/12/21 04:21:24;;;;;;;;;1.00;1.00;;;;;12.77;73.42;100700.00;2072224;28;46819;-62
2022/12/21 04:29:01;;;;;;;;;2.00;1.50;;;;;12.78;73.22;100709.75;2069079;28;46383;-62
2022/12/21 04:30:03;;;;;;;;;1.33;1.00;;;;;12.78;73.23;100711.53;2067461;28;46560;-62
2022/12/21 04:31:04;;;;;;;;;0.25;0.25;;;;;12.76;73.14;100714.25;2064060;28;46642;-61
2022/12/21 04:32:04;;;;;;;;;0.67;0.67;;;;;12.76;73.14;100718.72;2075276;28;46224;-61
2022/12/21 04:33:06;;;;;;;;;2.33;1.00;;;;;12.75;73.10;100712.50;2083824;27;46481;-61
2022/12/21 04:34:06;;;;;;;;;1.25;1.00;;;;;12.74;72.94;100705.44;2097846;28;46571;-61
2022/12/21 04:35:07;;;;;;;;;1.33;1.33;;;;;12.74;73.26;100704.56;2108717;27;46694;-62
2022/12/21 04:37:32;;;;;;;;;0.25;0.25;;;;;12.75;72.96;100709.84;2104783;28;46414;-61
2022/12/21 04:38:36;;;;;;;;;0.00;0.00;;;;;12.76;72.92;100716.91;2102041;28;46224;-61
2022/12/21 04:39:36;;;;;;;;;1.00;1.00;;;;;12.75;73.08;100719.63;2109486;27;45751;-61
2022/12/21 04:40:36;;;;;;;;;0.00;0.00;;;;;12.74;73.06;100716.09;2114093;27;46281;-61
2022/12/21 04:41:37;;;;;;;;;0.00;0.00;;;;;12.73;72.99;100711.69;2106682;27;45553;-61
2022/12/21 04:42:39;;;;;;;;;1.00;1.00;;;;;12.73;72.88;100716.13;2105782;27;46589;-61
2022/12/21 04:43:40;;;;;;;;;0.00;0.00;;;;;12.73;72.99;100717.00;2111863;27;47275;-61
2022/12/21 04:44:40;;;;;;;;;0.00;0.00;;;;;12.73;72.99;100714.34;2108539;27;47266;-62
2022/12/21 04:45:41;;;;;;;;;1.00;1.00;;;;;12.72;72.84;100712.59;2105067;27;46817;-61
2022/12/21 04:46:41;;;;;;;;;0.00;0.00;;;;;12.72;73.00;100709.94;2106388;27;46620;-61
2022/12/21 04:47:41;;;;;;;;;0.00;0.00;;;;;12.75;72.89;100714.31;2105684;27;46491;-61
2022/12/21 04:48:42;;;;;;;;;1.67;1.67;;;;;12.74;72.84;100705.44;2105362;27;46825;-61
2022/12/21 04:49:43;;;;;;;;;0.00;0.00;;;;;12.76;72.79;100716.91;2106743;27;47314;-61
2022/12/21 04:50:43;;;;;;;;;0.67;0.67;;;;;12.76;72.55;100721.38;2105453;27;46652;-61
2022/12/21 04:51:43;;;;;;;;;1.00;1.00;;;;;12.76;72.69;100726.69;2111151;27;46478;-61
2022/12/21 04:52:44;;;;;;;;;0.00;0.00;;;;;12.76;72.70;100724.03;2116728;27;46500;-61
2022/12/21 04:53:45;;;;;;;;;0.00;0.00;;;;;12.75;72.64;100725.81;2112989;27;46761;-62
2022/12/21 04:54:46;;;;;;;;;1.00;1.00;;;;;12.75;72.52;100723.16;2106194;27;46803;-62
2022/12/21 04:55:46;;;;;;;;;0.00;0.00;;;;;12.75;72.88;100725.81;2097595;28;46264;-62
2022/12/21 04:56:47;;;;;;;;;0.00;0.00;;;;;12.77;72.69;100731.09;2097735;28;46197;-61
2022/12/21 04:57:47;;;;;;;;;1.00;1.00;;;;;12.74;72.42;100718.75;2105236;28;46328;-62
2022/12/21 04:58:47;;;;;;;;;0.00;0.00;;;;;12.74;72.43;100720.53;2106773;27;46460;-61
2022/12/21 04:59:48;;;;;;;;;1.00;1.00;;;;;12.72;72.50;100723.25;2113993;27;46293;-62
2022/12/21 05:00:48;;;;;;;;;1.00;1.00;;;;;12.72;72.49;100725.06;2113897;27;46743;-61
2022/12/21 05:01:48;;;;;;;;;1.00;1.00;;;;;12.73;72.61;100729.47;2114261;27;47539;-62
2022/12/21 05:02:49;;;;;;;;;0.00;0.00;;;;;12.73;72.67;100729.47;2108041;27;46453;-61
2022/12/21 05:03:50;;;;;;;;;1.00;1.00;;;;;12.73;72.50;100733.00;2107955;27;46688;-62
2022/12/21 05:04:50;;;;;;;;;1.25;0.75;;;;;12.74;72.53;100729.41;2106968;27;46778;-62
2022/12/21 05:05:51;;;;;;;;;1.00;1.00;;;;;12.73;72.42;100727.66;2112173;27;46573;-61
2022/12/21 05:06:51;;;;;;;;;0.33;0.33;;;;;12.73;72.48;100732.13;2112598;27;46822;-62
2022/12/21 05:07:53;;;;;;;;;1.00;1.00;;;;;12.72;72.37;100731.25;2105468;27;45900;-61
2022/12/21 05:08:53;;;;;;;;;1.25;1.25;;;;;12.72;72.42;100730.38;2099866;28;46368;-61
2022/12/21 05:09:53;;;;;;;;;0.33;0.33;;;;;12.72;72.32;100733.91;2095939;28;46246;-61
2022/12/21 05:10:54;;;;;;;;;2.00;1.00;;;;;12.73;72.40;100726.78;2095895;28;46535;-61
2022/12/21 05:11:55;;;;;;;;;0.67;0.67;;;;;12.72;72.40;100723.25;2096994;28;46687;-62
2022/12/21 05:12:55;;;;;;;;;0.75;0.75;;;;;12.73;72.28;100733.00;2096020;28;46222;-61
2022/12/21 05:13:55;;;;;;;;;1.33;1.00;;;;;12.72;72.37;100728.59;2087763;28;46416;-61
2022/12/21 05:14:56;;;;;;;;;1.00;1.00;;;;;12.73;72.32;100732.13;2087878;28;46880;-62
2022/12/21 05:16:01;;;;;;;;;1.00;1.00;;;;;12.73;72.11;100733.00;2096363;28;46986;-61
2022/12/21 05:17:02;;;;;;;;;1.50;1.50;;;;;12.73;72.08;100738.31;2087636;28;46569;-61
2022/12/21 05:18:02;;;;;;;;;0.33;0.33;;;;;12.74;72.04;100741.84;2087583;28;46580;-61